A- A+ FrançaisEnglishEspañol中国

Services sur Internet Soldes sur Internet Des idées de cadeaux Météo Météo aéro

La météo à : Autours de vous Tarbes-Lourdes-PyrénéesEvreux-Fauville Marseille Aix-Les Milles

manche à air

La météo aéronautique pour les pilotes, la préparation du vol avec les METAR (METeorological Aerodrome Report, message d'observation des conditions météorologiques pour l'aviation) et Les TAF (Terminal Aerodrome Forecast : message de prévision à court terme des conditions météorologiques pour l'aviation). Et les autres ressources comme les VAC (Visual Approch Chart) et les NOTAM (Notice To Airman) pour préprer les vols.

Aéroport Dublin (Irlande) / OACI EIDW/ IATA DUB

L'altitude de l'aéroport Dublin est de 74 m = 243 ft. Il est situé à proximité de Dublin (Irlande). La météo générale à 5 jours est disponible pour Coultry situé à 0.2 km.

METAR de l'aéroport Dublin - EIDW

EIDW 300630Z 11009KT 9999 FEW012 SCT017 BKN040 06/04 Q1017 NOSIG

Décodage du METAR de l'aéroport Dublin (IE)

METAR émis par EIDW le samedi 30 novembre 2019 à 06:30 heure TU. Attention ce METAR est obsolète car il a été émis il y a 7 heure et 21 minutes.

La visibilité est de supérieure à 10 km = supérieure à 6.2 sm.

La température est de 6°C = 43 °F et le point rosée est de 4°C = 39 °F . Ce qui correspond à 87% d'humidité relative.

Le QNH est de 1017 hPa = 30.03 inHg

Vent de 9 kt = 17 km/h, orienté à 110°.

Nuages : Quelques nuages à 1200 ft = 370 mètres. Nuages épars à 1700 ft = 520 mètres. Couverture nuageuse fragmentée à 4000 ft = 1220 mètres.

Aucun changement significatif dans les deux heures à venir

TAF de l'aéroport Dublin - EIDW

EIDW 300500Z 3006/0106 11012KT 9999 FEW015 BKN022 BECMG 3018/3020 10007KT BECMG 0101/0103 03005KT BECMG 0103/0105 35004KT

EIDW 300500Z 3006/0106 11012KT 9999 quelques nuages à 015 couverture nuageuse fragmentée à 022 devenant 3018/3020 10007KT devenant 0101/0103 03005KT devenant 0103/0105 35004KT

Aéroport à proximité de Dublin

Météo générale à 5 jours à Coultry (0.2 km)Aéroport Ballyboughal (10 km)Aéroport Weston (16 km)Aéroport Casement Baldonnel (18 km)Aéroport Powerscourt (27 km)Aéroport Trim (35 km)Aéroport Gowran Grange (36 km)

VAC de l'aéroport Dublin - EIDW

La carte d'approche à vue (VAC Visual Approah Chart) est fournie sans aucune garantie de son actualité. Le pilote est le seul responsable de la vérification de sa validité avant de l'utiliser opérationnellement pour préparer un vol ou l'utiliser lors de sa navigation.

VAC de EIDW

Vue aérienne de l'aéroport Dublin

NOTAM de l'aéroport Dublin

Les NOTAM sont fournis sans aucune garantie de leur actualité. Le pilote est le seul responsable de la vérification de sa validité avant de l'utiliser opérationnellement pour préparer un vol ou l'utiliser lors de sa navigation.

Pas de NOTAM

Sources des données